sensor_id;sensor_type;location;lat;lon;timestamp;pressure;altitude;pressure_sealevel;temperature;humidity
27705;BME280;15109;50.992;6.918;2022-12-18T00:01:58;102312.09;;;-4.17;100.00
27705;BME280;15109;50.992;6.918;2022-12-18T00:05:21;102303.31;;;-4.21;100.00
27705;BME280;15109;50.992;6.918;2022-12-18T00:08:43;102303.31;;;-4.21;100.00
27705;BME280;15109;50.992;6.918;2022-12-18T00:12:05;102309.91;;;-4.31;100.00
27705;BME280;15109;50.992;6.918;2022-12-18T00:15:26;102310.84;;;-4.32;100.00
27705;BME280;15109;50.992;6.918;2022-12-18T00:19:08;102308.84;;;-4.27;100.00
27705;BME280;15109;50.992;6.918;2022-12-18T00:22:29;102306.28;;;-4.28;100.00
27705;BME280;15109;50.992;6.918;2022-12-18T00:25:50;102320.66;;;-4.32;100.00
27705;BME280;15109;50.992;6.918;2022-12-18T00:29:13;102315.34;;;-4.34;100.00
27705;BME280;15109;50.992;6.918;2022-12-18T00:32:35;102330.44;;;-4.33;100.00
27705;BME280;15109;50.992;6.918;2022-12-18T00:39:24;102328.22;;;-4.45;100.00
27705;BME280;15109;50.992;6.918;2022-12-18T00:42:45;102332.50;;;-4.41;100.00
27705;BME280;15109;50.992;6.918;2022-12-18T00:46:18;102319.09;;;-4.39;100.00
27705;BME280;15109;50.992;6.918;2022-12-18T00:49:39;102309.97;;;-4.32;100.00
27705;BME280;15109;50.992;6.918;2022-12-18T00:53:00;102303.88;;;-4.36;100.00
27705;BME280;15109;50.992;6.918;2022-12-18T00:56:21;102304.78;;;-4.37;100.00
27705;BME280;15109;50.992;6.918;2022-12-18T00:59:42;102298.56;;;-4.37;100.00
27705;BME280;15109;50.992;6.918;2022-12-18T01:03:04;102314.84;;;-4.45;100.00
27705;BME280;15109;50.992;6.918;2022-12-18T01:06:25;102309.25;;;-4.37;100.00
27705;BME280;15109;50.992;6.918;2022-12-18T01:09:46;102288.09;;;-4.43;100.00
27705;BME280;15109;50.992;6.918;2022-12-18T01:13:08;102300.63;;;-4.45;100.00
27705;BME280;15109;50.992;6.918;2022-12-18T01:16:29;102295.34;;;-4.47;100.00
27705;BME280;15109;50.992;6.918;2022-12-18T01:19:51;102298.78;;;-4.43;100.00
27705;BME280;15109;50.992;6.918;2022-12-18T01:23:12;102298.88;;;-4.46;100.00
27705;BME280;15109;50.992;6.918;2022-12-18T01:26:33;102307.72;;;-4.44;100.00
27705;BME280;15109;50.992;6.918;2022-12-18T01:29:54;102312.22;;;-4.46;100.00
27705;BME280;15109;50.992;6.918;2022-12-18T01:33:15;102310.31;;;-4.43;100.00
27705;BME280;15109;50.992;6.918;2022-12-18T01:36:37;102313.91;;;-4.44;100.00
27705;BME280;15109;50.992;6.918;2022-12-18T01:39:59;102311.09;;;-4.39;100.00
27705;BME280;15109;50.992;6.918;2022-12-18T01:43:20;102301.28;;;-4.39;100.00
27705;BME280;15109;50.992;6.918;2022-12-18T01:46:41;102299.53;;;-4.40;100.00
27705;BME280;15109;50.992;6.918;2022-12-18T01:53:36;102308.41;;;-4.39;100.00
27705;BME280;15109;50.992;6.918;2022-12-18T01:56:58;102301.13;;;-4.34;100.00
27705;BME280;15109;50.992;6.918;2022-12-18T02:00:21;102302.88;;;-4.33;100.00
27705;BME280;15109;50.992;6.918;2022-12-18T02:03:44;102298.63;;;-4.39;100.00
27705;BME280;15109;50.992;6.918;2022-12-18T02:18:07;102303.31;;;-4.45;100.00
27705;BME280;15109;50.992;6.918;2022-12-18T02:21:36;102296.72;;;-4.35;100.00
27705;BME280;15109;50.992;6.918;2022-12-18T02:28:33;102301.34;;;-4.40;100.00
27705;BME280;15109;50.992;6.918;2022-12-18T02:32:06;102314.63;;;-4.39;100.00
27705;BME280;15109;50.992;6.918;2022-12-18T02:35:30;102304.63;;;-4.32;100.00
27705;BME280;15109;50.992;6.918;2022-12-18T02:38:54;102290.56;;;-4.37;100.00
27705;BME280;15109;50.992;6.918;2022-12-18T02:42:17;102279.84;;;-4.36;100.00
27705;BME280;15109;50.992;6.918;2022-12-18T02:45:50;102285.28;;;-4.39;100.00
27705;BME280;15109;50.992;6.918;2022-12-18T02:49:36;102284.34;;;-4.38;100.00
27705;BME280;15109;50.992;6.918;2022-12-18T02:56:55;102276.38;;;-4.39;100.00
27705;BME280;15109;50.992;6.918;2022-12-18T03:00:21;102279.00;;;-4.38;100.00
27705;BME280;15109;50.992;6.918;2022-12-18T03:07:17;102287.84;;;-4.36;100.00
27705;BME280;15109;50.992;6.918;2022-12-18T03:10:45;102286.81;;;-4.32;100.00
27705;BME280;15109;50.992;6.918;2022-12-18T03:14:11;102278.84;;;-4.33;100.00
27705;BME280;15109;50.992;6.918;2022-12-18T03:17:34;102278.09;;;-4.37;100.00
27705;BME280;15109;50.992;6.918;2022-12-18T03:21:01;102277.34;;;-4.40;100.00
27705;BME280;15109;50.992;6.918;2022-12-18T03:24:26;102265.97;;;-4.47;100.00
27705;BME280;15109;50.992;6.918;2022-12-18T03:27:54;102262.34;;;-4.44;100.00
27705;BME280;15109;50.992;6.918;2022-12-18T03:31:16;102257.00;;;-4.44;100.00
27705;BME280;15109;50.992;6.918;2022-12-18T03:34:40;102256.06;;;-4.43;100.00
27705;BME280;15109;50.992;6.918;2022-12-18T03:38:06;102256.06;;;-4.43;100.00
27705;BME280;15109;50.992;6.918;2022-12-18T03:41:42;102256.19;;;-4.46;100.00
27705;BME280;15109;50.992;6.918;2022-12-18T03:48:52;102265.22;;;-4.50;100.00
27705;BME280;15109;50.992;6.918;2022-12-18T03:55:44;102255.47;;;-4.51;100.00
27705;BME280;15109;50.992;6.918;2022-12-18T03:59:07;102253.56;;;-4.48;100.00
27705;BME280;15109;50.992;6.918;2022-12-18T04:02:33;102257.94;;;-4.45;100.00
27705;BME280;15109;50.992;6.918;2022-12-18T04:05:57;102254.66;;;-4.53;100.00
27705;BME280;15109;50.992;6.918;2022-12-18T04:09:21;102250.13;;;-4.51;100.00
27705;BME280;15109;50.992;6.918;2022-12-18T04:12:44;102247.31;;;-4.47;100.00
27705;BME280;15109;50.992;6.918;2022-12-18T04:16:07;102232.13;;;-4.45;100.00
27705;BME280;15109;50.992;6.918;2022-12-18T04:19:28;102233.06;;;-4.47;100.00
27705;BME280;15109;50.992;6.918;2022-12-18T04:22:50;102239.28;;;-4.47;100.00
27705;BME280;15109;50.992;6.918;2022-12-18T04:26:13;102240.31;;;-4.51;100.00
27705;BME280;15109;50.992;6.918;2022-12-18T04:29:44;102241.97;;;-4.47;100.00
27705;BME280;15109;50.992;6.918;2022-12-18T04:33:12;102244.63;;;-4.47;100.00
27705;BME280;15109;50.992;6.918;2022-12-18T04:36:34;102239.44;;;-4.51;100.00
27705;BME280;15109;50.992;6.918;2022-12-18T04:39:55;102245.66;;;-4.51;100.00
27705;BME280;15109;50.992;6.918;2022-12-18T04:43:28;102241.25;;;-4.52;100.00
27705;BME280;15109;50.992;6.918;2022-12-18T04:46:49;102241.31;;;-4.53;100.00
27705;BME280;15109;50.992;6.918;2022-12-18T04:50:10;102241.19;;;-4.50;100.00
27705;BME280;15109;50.992;6.918;2022-12-18T04:53:31;102237.66;;;-4.51;100.00
27705;BME280;15109;50.992;6.918;2022-12-18T04:56:53;102242.19;;;-4.53;100.00
27705;BME280;15109;50.992;6.918;2022-12-18T05:00:14;102239.53;;;-4.53;100.00
27705;BME280;15109;50.992;6.918;2022-12-18T05:03:36;102234.19;;;-4.53;100.00
27705;BME280;15109;50.992;6.918;2022-12-18T05:06:57;102235.00;;;-4.51;100.00
27705;BME280;15109;50.992;6.918;2022-12-18T05:10:18;102230.81;;;-4.58;100.00
27705;BME280;15109;50.992;6.918;2022-12-18T05:13:39;102222.63;;;-4.53;100.00
27705;BME280;15109;50.992;6.918;2022-12-18T05:17:00;102219.97;;;-4.53;100.00
27705;BME280;15109;50.992;6.918;2022-12-18T05:20:21;102220.84;;;-4.53;100.00
27705;BME280;15109;50.992;6.918;2022-12-18T05:23:42;102224.44;;;-4.54;100.00
27705;BME280;15109;50.992;6.918;2022-12-18T05:27:03;102227.19;;;-4.57;100.00
27705;BME280;15109;50.992;6.918;2022-12-18T05:30:24;102215.00;;;-4.64;100.00
27705;BME280;15109;50.992;6.918;2022-12-18T05:33:45;102229.97;;;-4.60;100.00
27705;BME280;15109;50.992;6.918;2022-12-18T05:37:06;102232.44;;;-4.54;100.00
27705;BME280;15109;50.992;6.918;2022-12-18T05:40:27;102236.13;;;-4.58;100.00
27705;BME280;15109;50.992;6.918;2022-12-18T05:43:48;102247.53;;;-4.53;100.00
27705;BME280;15109;50.992;6.918;2022-12-18T05:47:10;102250.28;;;-4.56;100.00
27705;BME280;15109;50.992;6.918;2022-12-18T05:50:39;102253.88;;;-4.57;100.00
27705;BME280;15109;50.992;6.918;2022-12-18T05:54:00;102257.66;;;-4.63;100.00
27705;BME280;15109;50.992;6.918;2022-12-18T05:57:21;102256.78;;;-4.63;100.00
27705;BME280;15109;50.992;6.918;2022-12-18T06:00:44;102272.88;;;-4.66;100.00
27705;BME280;15109;50.992;6.918;2022-12-18T06:04:05;102265.81;;;-4.67;100.00
27705;BME280;15109;50.992;6.918;2022-12-18T06:07:26;102275.72;;;-4.71;100.00
27705;BME280;15109;50.992;6.918;2022-12-18T06:10:50;102286.22;;;-4.66;100.00
27705;BME280;15109;50.992;6.918;2022-12-18T06:14:13;102291.47;;;-4.63;100.00
27705;BME280;15109;50.992;6.918;2022-12-18T06:17:34;102294.16;;;-4.65;100.00
27705;BME280;15109;50.992;6.918;2022-12-18T06:20:56;102291.56;;;-4.66;100.00
27705;BME280;15109;50.992;6.918;2022-12-18T06:24:17;102299.63;;;-4.68;100.00
27705;BME280;15109;50.992;6.918;2022-12-18T06:27:38;102300.41;;;-4.66;100.00
27705;BME280;15109;50.992;6.918;2022-12-18T06:30:59;102299.66;;;-4.69;100.00
27705;BME280;15109;50.992;6.918;2022-12-18T06:34:20;102289.91;;;-4.70;100.00
27705;BME280;15109;50.992;6.918;2022-12-18T06:37:42;102297.13;;;-4.74;100.00
27705;BME280;15109;50.992;6.918;2022-12-18T06:41:09;102283.78;;;-4.74;100.00
27705;BME280;15109;50.992;6.918;2022-12-18T06:44:31;102278.41;;;-4.72;100.00
27705;BME280;15109;50.992;6.918;2022-12-18T06:47:52;102282.72;;;-4.68;100.00
27705;BME280;15109;50.992;6.918;2022-12-18T06:51:18;102285.56;;;-4.73;100.00
27705;BME280;15109;50.992;6.918;2022-12-18T06:54:39;102285.13;;;-4.61;100.00
27705;BME280;15109;50.992;6.918;2022-12-18T06:58:00;102277.25;;;-4.64;100.00
27705;BME280;15109;50.992;6.918;2022-12-18T07:01:22;102271.28;;;-4.72;100.00
27705;BME280;15109;50.992;6.918;2022-12-18T07:04:43;102267.75;;;-4.72;100.00
27705;BME280;15109;50.992;6.918;2022-12-18T07:08:04;102256.19;;;-4.73;100.00
27705;BME280;15109;50.992;6.918;2022-12-18T07:11:25;102257.13;;;-4.74;100.00
27705;BME280;15109;50.992;6.918;2022-12-18T07:14:46;102263.31;;;-4.73;100.00
27705;BME280;15109;50.992;6.918;2022-12-18T07:18:07;102259.72;;;-4.71;100.00
27705;BME280;15109;50.992;6.918;2022-12-18T07:21:28;102277.50;;;-4.71;100.00
27705;BME280;15109;50.992;6.918;2022-12-18T07:24:49;102257.97;;;-4.72;100.00
27705;BME280;15109;50.992;6.918;2022-12-18T07:28:10;102266.69;;;-4.67;100.00
27705;BME280;15109;50.992;6.918;2022-12-18T07:31:33;102247.88;;;-4.64;100.00
27705;BME280;15109;50.992;6.918;2022-12-18T07:34:54;102249.78;;;-4.67;100.00
27705;BME280;15109;50.992;6.918;2022-12-18T07:38:15;102246.13;;;-4.65;100.00
27705;BME280;15109;50.992;6.918;2022-12-18T07:41:36;102251.19;;;-4.57;100.00
27705;BME280;15109;50.992;6.918;2022-12-18T07:45:04;102249.56;;;-4.61;100.00
27705;BME280;15109;50.992;6.918;2022-12-18T07:48:25;102253.06;;;-4.59;100.00
27705;BME280;15109;50.992;6.918;2022-12-18T07:51:46;102250.28;;;-4.56;100.00
27705;BME280;15109;50.992;6.918;2022-12-18T07:55:09;102261.84;;;-4.55;100.00
27705;BME280;15109;50.992;6.918;2022-12-18T07:58:30;102263.34;;;-4.48;100.00
27705;BME280;15109;50.992;6.918;2022-12-18T08:01:51;102249.84;;;-4.44;100.00
27705;BME280;15109;50.992;6.918;2022-12-18T08:05:12;102240.94;;;-4.43;100.00
27705;BME280;15109;50.992;6.918;2022-12-18T08:08:34;102239.13;;;-4.42;100.00
27705;BME280;15109;50.992;6.918;2022-12-18T08:11:56;102233.63;;;-4.38;100.00
27705;BME280;15109;50.992;6.918;2022-12-18T08:15:17;102229.94;;;-4.34;100.00
27705;BME280;15109;50.992;6.918;2022-12-18T08:18:38;102228.00;;;-4.30;100.00
27705;BME280;15109;50.992;6.918;2022-12-18T08:21:59;102220.66;;;-4.24;100.00
27705;BME280;15109;50.992;6.918;2022-12-18T08:25:20;102208.78;;;-4.15;100.00
27705;BME280;15109;50.992;6.918;2022-12-18T08:28:42;102197.69;;;-4.04;100.00
27705;BME280;15109;50.992;6.918;2022-12-18T08:32:03;102191.13;;;-3.96;100.00
27705;BME280;15109;50.992;6.918;2022-12-18T08:35:24;102196.09;;;-3.87;100.00
27705;BME280;15109;50.992;6.918;2022-12-18T08:38:46;102194.25;;;-3.85;100.00
27705;BME280;15109;50.992;6.918;2022-12-18T08:42:07;102193.13;;;-3.79;100.00
27705;BME280;15109;50.992;6.918;2022-12-18T08:45:47;102181.28;;;-3.72;100.00
27705;BME280;15109;50.992;6.918;2022-12-18T08:49:09;102187.94;;;-3.60;100.00
27705;BME280;15109;50.992;6.918;2022-12-18T08:52:32;102184.91;;;-3.51;100.00
27705;BME280;15109;50.992;6.918;2022-12-18T08:55:53;102179.03;;;-3.38;100.00
27705;BME280;15109;50.992;6.918;2022-12-18T08:59:14;102175.00;;;-3.28;100.00
27705;BME280;15109;50.992;6.918;2022-12-18T09:02:35;102172.94;;;-3.19;100.00
27705;BME280;15109;50.992;6.918;2022-12-18T09:05:56;102183.97;;;-3.07;100.00
27705;BME280;15109;50.992;6.918;2022-12-18T09:09:17;102178.16;;;-2.96;100.00
27705;BME280;15109;50.992;6.918;2022-12-18T09:12:38;102165.53;;;-2.93;100.00
27705;BME280;15109;50.992;6.918;2022-12-18T09:15:59;102176.84;;;-2.86;100.00
27705;BME280;15109;50.992;6.918;2022-12-18T09:19:23;102183.06;;;-2.86;100.00
27705;BME280;15109;50.992;6.918;2022-12-18T09:22:44;102175.72;;;-2.81;100.00
27705;BME280;15109;50.992;6.918;2022-12-18T09:26:06;102170.22;;;-2.78;100.00
27705;BME280;15109;50.992;6.918;2022-12-18T09:29:27;102160.00;;;-2.68;100.00
27705;BME280;15109;50.992;6.918;2022-12-18T09:32:48;102147.16;;;-2.60;100.00
27705;BME280;15109;50.992;6.918;2022-12-18T09:36:15;102152.09;;;-2.51;100.00
27705;BME280;15109;50.992;6.918;2022-12-18T09:39:36;102145.50;;;-2.44;100.00
27705;BME280;15109;50.992;6.918;2022-12-18T09:43:04;102131.56;;;-2.32;100.00
27705;BME280;15109;50.992;6.918;2022-12-18T09:46:48;102132.16;;;-2.25;100.00
27705;BME280;15109;50.992;6.918;2022-12-18T09:50:32;102137.00;;;-2.14;100.00
27705;BME280;15109;50.992;6.918;2022-12-18T09:53:58;102133.13;;;-2.07;100.00
27705;BME280;15109;50.992;6.918;2022-12-18T09:57:23;102122.16;;;-2.03;100.00
27705;BME280;15109;50.992;6.918;2022-12-18T10:00:45;102118.56;;;-2.02;100.00
27705;BME280;15109;50.992;6.918;2022-12-18T10:04:08;102118.50;;;-2.00;100.00
27705;BME280;15109;50.992;6.918;2022-12-18T10:26:10;102091.41;;;-1.58;100.00
27705;BME280;15109;50.992;6.918;2022-12-18T10:29:31;102095.38;;;-1.48;100.00
27705;BME280;15109;50.992;6.918;2022-12-18T10:32:52;102102.28;;;-1.43;100.00
27705;BME280;15109;50.992;6.918;2022-12-18T10:36:13;102097.38;;;-1.34;100.00
27705;BME280;15109;50.992;6.918;2022-12-18T10:39:35;102083.88;;;-1.33;100.00
27705;BME280;15109;50.992;6.918;2022-12-18T10:43:11;102086.19;;;-1.25;100.00
27705;BME280;15109;50.992;6.918;2022-12-18T10:46:33;102085.22;;;-1.24;100.00
27705;BME280;15109;50.992;6.918;2022-12-18T10:49:54;102072.78;;;-1.25;100.00
27705;BME280;15109;50.992;6.918;2022-12-18T10:53:22;102079.72;;;-1.21;100.00
27705;BME280;15109;50.992;6.918;2022-12-18T10:56:44;102071.50;;;-1.18;100.00
27705;BME280;15109;50.992;6.918;2022-12-18T11:00:29;102053.91;;;-1.07;100.00
27705;BME280;15109;50.992;6.918;2022-12-18T11:07:14;102051.59;;;-0.97;100.00
27705;BME280;15109;50.992;6.918;2022-12-18T11:10:37;102047.88;;;-0.95;100.00
27705;BME280;15109;50.992;6.918;2022-12-18T11:14:06;102043.94;;;-0.87;100.00
27705;BME280;15109;50.992;6.918;2022-12-18T11:17:30;102039.34;;;-0.85;100.00
27705;BME280;15109;50.992;6.918;2022-12-18T11:20:58;102052.97;;;-0.73;100.00
27705;BME280;15109;50.992;6.918;2022-12-18T11:24:31;102067.84;;;-0.66;100.00
27705;BME280;15109;50.992;6.918;2022-12-18T11:27:56;102057.00;;;-0.64;100.00
27705;BME280;15109;50.992;6.918;2022-12-18T11:31:25;102055.81;;;-0.59;100.00
27705;BME280;15109;50.992;6.918;2022-12-18T11:34:54;102033.38;;;-0.58;100.00
27705;BME280;15109;50.992;6.918;2022-12-18T11:38:27;102029.88;;;-0.60;100.00
27705;BME280;15109;50.992;6.918;2022-12-18T11:42:02;102026.34;;;-0.60;100.00
27705;BME280;15109;50.992;6.918;2022-12-18T11:45:35;102027.13;;;-0.58;100.00
27705;BME280;15109;50.992;6.918;2022-12-18T11:49:19;102020.56;;;-0.53;100.00
27705;BME280;15109;50.992;6.918;2022-12-18T11:52:41;102012.16;;;-0.47;100.00
27705;BME280;15109;50.992;6.918;2022-12-18T11:56:16;101999.69;;;-0.48;100.00
27705;BME280;15109;50.992;6.918;2022-12-18T11:59:55;101998.91;;;-0.50;100.00
27705;BME280;15109;50.992;6.918;2022-12-18T12:03:47;101997.44;;;-0.39;100.00
27705;BME280;15109;50.992;6.918;2022-12-18T12:10:53;101991.19;;;-0.40;100.00
27705;BME280;15109;50.992;6.918;2022-12-18T12:14:27;101994.03;;;-0.43;100.00
27705;BME280;15109;50.992;6.918;2022-12-18T12:18:05;101998.03;;;-0.34;100.00
27705;BME280;15109;50.992;6.918;2022-12-18T12:25:42;101985.31;;;-0.31;100.00
27705;BME280;15109;50.992;6.918;2022-12-18T12:29:41;101970.22;;;-0.49;100.00
27705;BME280;15109;50.992;6.918;2022-12-18T12:36:51;101976.28;;;-0.46;100.00
27705;BME280;15109;50.992;6.918;2022-12-18T12:40:19;101980.78;;;-0.46;100.00
27705;BME280;15109;50.992;6.918;2022-12-18T12:43:44;101981.47;;;-0.42;100.00
27705;BME280;15109;50.992;6.918;2022-12-18T12:47:20;101978.22;;;-0.48;100.00
27705;BME280;15109;50.992;6.918;2022-12-18T12:50:44;101979.16;;;-0.49;100.00
27705;BME280;15109;50.992;6.918;2022-12-18T12:54:18;101957.81;;;-0.52;100.00
27705;BME280;15109;50.992;6.918;2022-12-18T12:57:45;101968.22;;;-0.46;100.00
27705;BME280;15109;50.992;6.918;2022-12-18T13:01:38;101974.66;;;-0.48;100.00
27705;BME280;15109;50.992;6.918;2022-12-18T13:08:56;101991.78;;;-0.51;100.00
27705;BME280;15109;50.992;6.918;2022-12-18T13:12:17;101986.84;;;-0.42;100.00
27705;BME280;15109;50.992;6.918;2022-12-18T13:16:07;101962.94;;;-0.47;100.00
27705;BME280;15109;50.992;6.918;2022-12-18T13:19:29;101960.50;;;-0.52;100.00
27705;BME280;15109;50.992;6.918;2022-12-18T13:22:51;101972.84;;;-0.48;100.00
27705;BME280;15109;50.992;6.918;2022-12-18T13:29:45;101977.41;;;-0.50;100.00
27705;BME280;15109;50.992;6.918;2022-12-18T13:36:37;101945.16;;;-0.50;100.00
27705;BME280;15109;50.992;6.918;2022-12-18T13:39:58;101939.88;;;-0.51;100.00
27705;BME280;15109;50.992;6.918;2022-12-18T13:50:20;101931.31;;;-0.42;100.00
27705;BME280;15109;50.992;6.918;2022-12-18T13:54:19;101919.00;;;-0.46;100.00
27705;BME280;15109;50.992;6.918;2022-12-18T13:57:42;101917.38;;;-0.49;100.00
27705;BME280;15109;50.992;6.918;2022-12-18T14:01:21;101929.84;;;-0.48;100.00
27705;BME280;15109;50.992;6.918;2022-12-18T14:04:45;101912.59;;;-0.59;100.00
27705;BME280;15109;50.992;6.918;2022-12-18T14:08:12;101906.97;;;-0.70;100.00
27705;BME280;15109;50.992;6.918;2022-12-18T14:11:34;101893.09;;;-0.78;100.00
27705;BME280;15109;50.992;6.918;2022-12-18T14:14:55;101901.31;;;-0.81;100.00
27705;BME280;15109;50.992;6.918;2022-12-18T14:21:51;101894.56;;;-0.88;100.00
27705;BME280;15109;50.992;6.918;2022-12-18T14:28:43;101885.56;;;-0.87;100.00
27705;BME280;15109;50.992;6.918;2022-12-18T14:32:17;101878.19;;;-0.84;100.00
27705;BME280;15109;50.992;6.918;2022-12-18T14:35:41;101881.94;;;-0.86;100.00
27705;BME280;15109;50.992;6.918;2022-12-18T14:39:03;101873.94;;;-0.88;100.00
27705;BME280;15109;50.992;6.918;2022-12-18T14:42:25;101877.66;;;-0.91;100.00
27705;BME280;15109;50.992;6.918;2022-12-18T14:45:49;101864.59;;;-0.97;100.00
27705;BME280;15109;50.992;6.918;2022-12-18T14:49:29;101866.59;;;-1.00;100.00
27705;BME280;15109;50.992;6.918;2022-12-18T14:52:51;101871.16;;;-1.02;100.00
27705;BME280;15109;50.992;6.918;2022-12-18T14:56:24;101874.00;;;-1.05;100.00
27705;BME280;15109;50.992;6.918;2022-12-18T14:59:46;101869.84;;;-1.11;100.00
27705;BME280;15109;50.992;6.918;2022-12-18T15:03:08;101881.38;;;-1.09;100.00
27705;BME280;15109;50.992;6.918;2022-12-18T15:06:33;101890.19;;;-1.07;100.00
27705;BME280;15109;50.992;6.918;2022-12-18T15:10:09;101863.78;;;-1.14;100.00
27705;BME280;15109;50.992;6.918;2022-12-18T15:13:31;101858.75;;;-1.20;100.00
27705;BME280;15109;50.992;6.918;2022-12-18T15:16:53;101855.72;;;-1.14;100.00
27705;BME280;15109;50.992;6.918;2022-12-18T15:20:15;101868.03;;;-1.10;100.00
27705;BME280;15109;50.992;6.918;2022-12-18T15:23:50;101865.34;;;-1.10;100.00
27705;BME280;15109;50.992;6.918;2022-12-18T15:34:38;101870.78;;;-1.12;100.00
27705;BME280;15109;50.992;6.918;2022-12-18T15:37:59;101876.16;;;-1.12;100.00
27705;BME280;15109;50.992;6.918;2022-12-18T15:41:21;101858.75;;;-1.20;100.00
27705;BME280;15109;50.992;6.918;2022-12-18T15:44:43;101851.66;;;-1.21;100.00
27705;BME280;15109;50.992;6.918;2022-12-18T15:48:17;101852.16;;;-1.30;100.00
27705;BME280;15109;50.992;6.918;2022-12-18T15:51:40;101856.59;;;-1.29;100.00
27705;BME280;15109;50.992;6.918;2022-12-18T15:55:01;101852.94;;;-1.28;100.00
27705;BME280;15109;50.992;6.918;2022-12-18T15:58:40;101850.50;;;-1.33;100.00
27705;BME280;15109;50.992;6.918;2022-12-18T16:02:01;101844.25;;;-1.33;100.00
27705;BME280;15109;50.992;6.918;2022-12-18T16:05:27;101845.84;;;-1.29;100.00
27705;BME280;15109;50.992;6.918;2022-12-18T16:08:48;101848.59;;;-1.31;100.00
27705;BME280;15109;50.992;6.918;2022-12-18T16:12:30;101848.69;;;-1.32;100.00
27705;BME280;15109;50.992;6.918;2022-12-18T16:15:51;101840.63;;;-1.32;100.00
27705;BME280;15109;50.992;6.918;2022-12-18T16:19:12;101851.72;;;-1.39;100.00
27705;BME280;15109;50.992;6.918;2022-12-18T16:22:34;101864.16;;;-1.38;100.00
27705;BME280;15109;50.992;6.918;2022-12-18T16:25:55;101864.94;;;-1.35;100.00
27705;BME280;15109;50.992;6.918;2022-12-18T16:29:16;101855.09;;;-1.35;100.00
27705;BME280;15109;50.992;6.918;2022-12-18T16:32:37;101847.75;;;-1.31;100.00
27705;BME280;15109;50.992;6.918;2022-12-18T16:35:58;101848.59;;;-1.31;100.00
27705;BME280;15109;50.992;6.918;2022-12-18T16:39:20;101855.72;;;-1.30;100.00
27705;BME280;15109;50.992;6.918;2022-12-18T16:42:42;101849.56;;;-1.32;100.00
27705;BME280;15109;50.992;6.918;2022-12-18T16:46:04;101842.38;;;-1.31;100.00
27705;BME280;15109;50.992;6.918;2022-12-18T16:49:25;101839.75;;;-1.33;100.00
27705;BME280;15109;50.992;6.918;2022-12-18T16:52:46;101839.50;;;-1.28;100.00
27705;BME280;15109;50.992;6.918;2022-12-18T16:56:07;101842.06;;;-1.25;100.00
27705;BME280;15109;50.992;6.918;2022-12-18T16:59:28;101843.25;;;-1.31;100.00
27705;BME280;15109;50.992;6.918;2022-12-18T17:02:49;101845.06;;;-1.31;100.00
27705;BME280;15109;50.992;6.918;2022-12-18T17:06:10;101826.97;;;-1.28;100.00
27705;BME280;15109;50.992;6.918;2022-12-18T17:09:31;101836.75;;;-1.27;100.00
27705;BME280;15109;50.992;6.918;2022-12-18T17:12:52;101840.31;;;-1.26;100.00
27705;BME280;15109;50.992;6.918;2022-12-18T17:16:14;101845.50;;;-1.23;100.00
27705;BME280;15109;50.992;6.918;2022-12-18T17:19:35;101841.00;;;-1.23;100.00
27705;BME280;15109;50.992;6.918;2022-12-18T17:22:57;101839.00;;;-1.19;100.00
27705;BME280;15109;50.992;6.918;2022-12-18T17:26:18;101841.53;;;-1.16;100.00
27705;BME280;15109;50.992;6.918;2022-12-18T17:29:39;101821.03;;;-1.17;100.00
27705;BME280;15109;50.992;6.918;2022-12-18T17:33:01;101823.72;;;-1.17;100.00
27705;BME280;15109;50.992;6.918;2022-12-18T17:36:22;101813.13;;;-1.20;100.00
27705;BME280;15109;50.992;6.918;2022-12-18T17:39:44;101814.78;;;-1.18;100.00
27705;BME280;15109;50.992;6.918;2022-12-18T17:43:09;101805.19;;;-1.22;100.00
27705;BME280;15109;50.992;6.918;2022-12-18T17:46:32;101813.06;;;-1.19;100.00
27705;BME280;15109;50.992;6.918;2022-12-18T17:49:53;101828.28;;;-1.19;100.00
27705;BME280;15109;50.992;6.918;2022-12-18T17:53:14;101826.28;;;-1.16;100.00
27705;BME280;15109;50.992;6.918;2022-12-18T17:56:36;101835.47;;;-1.20;100.00
27705;BME280;15109;50.992;6.918;2022-12-18T17:59:57;101835.72;;;-1.24;100.00
27705;BME280;15109;50.992;6.918;2022-12-18T18:03:19;101848.09;;;-1.22;100.00
27705;BME280;15109;50.992;6.918;2022-12-18T18:06:40;101830.44;;;-1.26;100.00
27705;BME280;15109;50.992;6.918;2022-12-18T18:10:02;101832.16;;;-1.25;100.00
27705;BME280;15109;50.992;6.918;2022-12-18T18:13:24;101828.63;;;-1.25;100.00
27705;BME280;15109;50.992;6.918;2022-12-18T18:17:05;101836.34;;;-1.19;100.00
27705;BME280;15109;50.992;6.918;2022-12-18T18:20:26;101837.03;;;-1.16;100.00
27705;BME280;15109;50.992;6.918;2022-12-18T18:23:50;101847.06;;;-1.19;100.00
27705;BME280;15109;50.992;6.918;2022-12-18T18:27:11;101836.25;;;-1.18;100.00
27705;BME280;15109;50.992;6.918;2022-12-18T18:30:35;101850.00;;;-1.24;100.00
27705;BME280;15109;50.992;6.918;2022-12-18T18:33:59;101846.19;;;-1.20;100.00
27705;BME280;15109;50.992;6.918;2022-12-18T18:37:22;101850.00;;;-1.24;100.00
27705;BME280;15109;50.992;6.918;2022-12-18T18:40:46;101850.69;;;-1.20;100.00
27705;BME280;15109;50.992;6.918;2022-12-18T18:44:11;101851.72;;;-1.23;100.00
27705;BME280;15109;50.992;6.918;2022-12-18T18:47:35;101857.09;;;-1.23;100.00
27705;BME280;15109;50.992;6.918;2022-12-18T18:51:05;101855.22;;;-1.21;100.00
27705;BME280;15109;50.992;6.918;2022-12-18T18:54:30;101850.88;;;-1.23;100.00
27705;BME280;15109;50.992;6.918;2022-12-18T18:57:52;101828.38;;;-1.21;100.00
27705;BME280;15109;50.992;6.918;2022-12-18T19:01:19;101831.13;;;-1.22;100.00
27705;BME280;15109;50.992;6.918;2022-12-18T19:04:42;101822.84;;;-1.18;100.00
27705;BME280;15109;50.992;6.918;2022-12-18T19:08:05;101828.47;;;-1.22;100.00
27705;BME280;15109;50.992;6.918;2022-12-18T19:11:29;101819.38;;;-1.20;100.00
27705;BME280;15109;50.992;6.918;2022-12-18T19:15:10;101804.25;;;-1.21;100.00
27705;BME280;15109;50.992;6.918;2022-12-18T19:18:33;101805.50;;;-1.28;100.00